Time;durP1;ratioP1;P1;durP2;ratioP2;P2;SDS_P1;SDS_P2;PMS_P1;PMS_P2;Temp;Humidity;BMP_temperature;BMP_pressure;BME280_temperature;BME280_humidity;BME280_pressure;Samples;Min_cycle;Max_cycle;Signal;HPM_P1;HPM_P2
2021/06/24 00:00:45;;;;;;;1.70;1.20;;;26.30;65.10;;;;;;5015007;28;20045;-54
2021/06/24 00:03:11;;;;;;;2.25;1.30;;;26.30;63.90;;;;;;5015170;28;20033;-55
2021/06/24 00:05:37;;;;;;;2.35;1.10;;;26.30;65.00;;;;;;5014779;28;20026;-52
2021/06/24 00:08:02;;;;;;;1.50;1.23;;;26.30;64.80;;;;;;5008860;28;20026;-53
2021/06/24 00:10:28;;;;;;;1.25;1.05;;;26.30;65.00;;;;;;5002502;28;20088;-53
2021/06/24 00:12:54;;;;;;;2.35;1.23;;;26.30;64.70;;;;;;4998938;28;20113;-51
2021/06/24 00:15:20;;;;;;;1.88;1.25;;;26.30;63.60;;;;;;5008625;28;20045;-52
2021/06/24 00:17:45;;;;;;;3.13;1.20;;;26.30;63.00;;;;;;5007746;28;20076;-53
2021/06/24 00:20:11;;;;;;;1.70;1.30;;;26.30;63.20;;;;;;5008015;28;20046;-54
2021/06/24 00:22:37;;;;;;;2.00;1.50;;;26.30;63.80;;;;;;5003328;28;20121;-55
2021/06/24 00:25:03;;;;;;;1.70;1.40;;;26.30;63.60;;;;;;5009235;28;20110;-54
2021/06/24 00:27:29;;;;;;;4.15;1.23;;;26.30;63.50;;;;;;5004295;28;20036;-53
2021/06/24 00:29:55;;;;;;;2.47;1.65;;;26.30;64.00;;;;;;5005087;28;20387;-51
2021/06/24 00:32:20;;;;;;;1.55;0.90;;;26.30;64.10;;;;;;5002744;28;20030;-52
2021/06/24 00:34:46;;;;;;;1.23;1.13;;;26.20;64.00;;;;;;5011037;28;20038;-53
2021/06/24 00:37:11;;;;;;;1.30;1.20;;;26.20;63.50;;;;;;5009872;28;20052;-54
2021/06/24 00:39:37;;;;;;;1.13;0.85;;;26.20;63.30;;;;;;5019481;28;20113;-52
2021/06/24 00:42:04;;;;;;;2.00;1.10;;;26.30;62.80;;;;;;5013488;28;20430;-54
2021/06/24 00:44:30;;;;;;;1.20;1.00;;;26.20;62.60;;;;;;5014134;28;20038;-52
2021/06/24 00:46:55;;;;;;;3.17;1.40;;;26.20;63.20;;;;;;5018742;28;20032;-53
2021/06/24 00:49:21;;;;;;;3.80;1.20;;;26.20;62.40;;;;;;5013271;28;20077;-54
2021/06/24 00:51:47;;;;;;;1.98;1.10;;;26.20;63.50;;;;;;5013496;28;20050;-53
2021/06/24 00:54:13;;;;;;;3.95;1.00;;;26.20;62.20;;;;;;5015561;28;20415;-53
2021/06/24 00:56:38;;;;;;;1.77;1.23;;;26.20;62.30;;;;;;5018047;28;20171;-52
2021/06/24 00:59:04;;;;;;;1.90;1.30;;;26.20;62.70;;;;;;5012041;28;20018;-54
2021/06/24 01:01:32;;;;;;;5.65;1.27;;;26.20;62.40;;;;;;5014600;28;20026;-53
2021/06/24 01:03:58;;;;;;;3.17;1.48;;;26.30;60.50;;;;;;5013553;28;20026;-53
2021/06/24 01:06:24;;;;;;;5.32;1.70;;;26.30;59.30;;;;;;5013607;28;20057;-54
2021/06/24 01:08:50;;;;;;;2.78;1.70;;;26.30;58.90;;;;;;5013716;28;20065;-55
2021/06/24 01:11:17;;;;;;;1.60;1.20;;;26.30;58.70;;;;;;5013330;28;20042;-54
2021/06/24 01:13:44;;;;;;;5.50;1.75;;;26.30;58.20;;;;;;5014111;28;20029;-52
2021/06/24 01:16:10;;;;;;;1.50;1.23;;;26.30;59.00;;;;;;5012506;28;20026;-53
2021/06/24 01:18:36;;;;;;;2.50;1.17;;;26.30;61.50;;;;;;5013641;28;20426;-53
2021/06/24 01:21:03;;;;;;;4.32;1.50;;;26.30;60.10;;;;;;5013051;28;20042;-53
2021/06/24 01:23:35;;;;;;;2.47;1.10;;;26.20;60.40;;;;;;5014019;28;20041;-55
2021/06/24 01:26:01;;;;;;;5.70;1.90;;;26.20;60.80;;;;;;5012110;28;20061;-54
2021/06/24 01:28:26;;;;;;;1.98;1.42;;;26.20;60.70;;;;;;5013425;28;20475;-54
2021/06/24 01:30:52;;;;;;;1.50;1.10;;;26.20;60.90;;;;;;5013127;28;20033;-55
2021/06/24 01:33:18;;;;;;;1.98;1.30;;;26.20;60.60;;;;;;5012352;28;20755;-54
2021/06/24 01:35:44;;;;;;;1.35;1.10;;;26.20;60.20;;;;;;5012950;28;20029;-54
2021/06/24 01:38:11;;;;;;;2.05;1.40;;;26.20;60.40;;;;;;5011885;28;20534;-53
2021/06/24 01:40:37;;;;;;;3.05;1.20;;;26.20;60.90;;;;;;5017760;28;20076;-54
2021/06/24 01:43:04;;;;;;;2.40;1.30;;;26.20;61.60;;;;;;5012480;28;20034;-55
2021/06/24 01:45:30;;;;;;;1.90;1.20;;;26.20;62.50;;;;;;5013260;28;20088;-53
2021/06/24 01:47:56;;;;;;;2.53;1.60;;;26.10;62.20;;;;;;5012994;28;20026;-54
2021/06/24 01:50:22;;;;;;;1.85;1.10;;;26.10;62.20;;;;;;5013512;28;20055;-54
2021/06/24 01:52:49;;;;;;;1.40;1.20;;;26.10;62.00;;;;;;5013440;28;20085;-53
2021/06/24 01:55:16;;;;;;;1.90;1.30;;;26.10;61.90;;;;;;5011736;28;20026;-56
2021/06/24 01:57:42;;;;;;;3.05;1.33;;;26.10;62.00;;;;;;5012743;28;20109;-53
2021/06/24 02:00:13;;;;;;;2.05;1.20;;;26.10;61.80;;;;;;5012822;28;20118;-54
2021/06/24 02:02:41;;;;;;;1.40;1.30;;;26.10;62.50;;;;;;5031942;28;20056;-53
2021/06/24 02:05:08;;;;;;;2.35;1.17;;;26.10;62.30;;;;;;5023152;28;20338;-50
2021/06/24 02:07:37;;;;;;;2.85;1.20;;;26.00;62.20;;;;;;5012358;28;20034;-53
2021/06/24 02:10:03;;;;;;;2.35;1.08;;;26.10;62.60;;;;;;5018832;28;20476;-54
2021/06/24 02:12:29;;;;;;;2.55;1.20;;;26.10;62.00;;;;;;5012433;28;20068;-53
2021/06/24 02:14:55;;;;;;;3.28;1.23;;;26.00;62.30;;;;;;5012357;28;20120;-54
2021/06/24 02:17:20;;;;;;;3.85;1.20;;;26.00;62.40;;;;;;5011666;28;20026;-55
2021/06/24 02:19:46;;;;;;;2.25;1.38;;;26.10;62.70;;;;;;5012304;28;20042;-54
2021/06/24 02:22:12;;;;;;;2.25;1.30;;;26.00;62.60;;;;;;5011567;28;20101;-55
2021/06/24 02:24:37;;;;;;;1.25;1.10;;;26.10;62.70;;;;;;5012312;28;20108;-55
2021/06/24 02:27:03;;;;;;;1.77;1.00;;;26.10;62.70;;;;;;5009031;28;20458;-51
2021/06/24 02:29:29;;;;;;;2.25;1.33;;;26.10;62.70;;;;;;5012227;28;20037;-55
2021/06/24 02:31:54;;;;;;;2.55;1.00;;;26.00;62.40;;;;;;5012384;28;20590;-54
2021/06/24 02:34:21;;;;;;;1.85;1.20;;;26.10;62.40;;;;;;5011118;28;20109;-55
2021/06/24 02:36:46;;;;;;;1.42;1.02;;;26.00;62.50;;;;;;5012543;28;20068;-54
2021/06/24 02:39:12;;;;;;;2.38;1.30;;;26.10;62.70;;;;;;5011125;28;20487;-56
2021/06/24 02:41:37;;;;;;;4.18;1.23;;;26.00;62.10;;;;;;5012152;28;20041;-54
2021/06/24 02:44:03;;;;;;;1.55;1.30;;;26.00;62.20;;;;;;5011148;28;20052;-55
2021/06/24 02:46:29;;;;;;;1.95;1.25;;;26.00;62.10;;;;;;5012371;28;20061;-56
2021/06/24 02:48:55;;;;;;;1.83;1.13;;;26.00;62.20;;;;;;5012165;28;20415;-56
2021/06/24 02:51:20;;;;;;;2.55;1.20;;;26.00;62.60;;;;;;5010654;28;20064;-56
2021/06/24 02:53:46;;;;;;;2.38;1.02;;;26.00;62.50;;;;;;5012163;28;20134;-54
2021/06/24 02:56:12;;;;;;;3.33;1.20;;;26.00;62.50;;;;;;5011127;28;20080;-55
2021/06/24 02:58:37;;;;;;;1.67;1.20;;;26.00;62.40;;;;;;5017815;28;20060;-55
2021/06/24 03:01:03;;;;;;;2.95;1.23;;;26.10;62.50;;;;;;5010814;28;20034;-52
2021/06/24 03:03:29;;;;;;;1.38;0.93;;;26.00;62.10;;;;;;5011515;28;20062;-53
2021/06/24 03:05:55;;;;;;;1.23;1.10;;;26.10;62.30;;;;;;5011618;28;20070;-56
2021/06/24 03:08:21;;;;;;;2.03;1.20;;;26.00;62.20;;;;;;5009769;28;20463;-54
2021/06/24 03:10:47;;;;;;;1.52;1.00;;;26.00;62.10;;;;;;5011570;28;20364;-52
2021/06/24 03:13:13;;;;;;;2.17;1.20;;;26.00;62.10;;;;;;5010085;28;20030;-56
2021/06/24 03:15:39;;;;;;;2.85;1.02;;;26.00;61.40;;;;;;5014743;28;20476;-52
2021/06/24 03:18:05;;;;;;;3.28;1.65;;;26.00;61.10;;;;;;5014544;28;20054;-55
2021/06/24 03:20:31;;;;;;;2.90;1.30;;;26.00;61.70;;;;;;5015104;28;20399;-56
2021/06/24 03:23:00;;;;;;;1.40;1.10;;;26.00;61.90;;;;;;5015871;28;20030;-55
2021/06/24 03:25:27;;;;;;;1.92;1.20;;;26.00;61.90;;;;;;5014995;28;20472;-54
2021/06/24 03:27:53;;;;;;;1.55;1.30;;;26.00;61.00;;;;;;5015789;28;20037;-52
2021/06/24 03:30:20;;;;;;;4.45;1.33;;;26.00;61.10;;;;;;5014547;28;20037;-55
2021/06/24 03:32:46;;;;;;;1.23;1.00;;;26.00;60.30;;;;;;5018640;28;20030;-55
2021/06/24 03:35:12;;;;;;;1.92;1.00;;;26.10;60.60;;;;;;5014810;28;20030;-55
2021/06/24 03:37:38;;;;;;;1.52;1.00;;;26.00;60.90;;;;;;5015000;28;20030;-54
2021/06/24 03:40:09;;;;;;;0.98;0.88;;;26.00;61.70;;;;;;5014625;28;20109;-52
2021/06/24 03:42:35;;;;;;;;;;;26.00;61.30;;;;;;5015615;28;20034;-54
2021/06/24 03:45:02;;;;;;;2.05;1.30;;;26.00;61.10;;;;;;5014632;28;19932;-55
2021/06/24 03:47:27;;;;;;;2.08;0.98;;;26.00;61.60;;;;;;5014840;28;20026;-53
2021/06/24 03:49:53;;;;;;;1.52;1.13;;;26.00;61.40;;;;;;5015238;28;20026;-53
2021/06/24 03:52:19;;;;;;;1.63;1.20;;;26.00;61.50;;;;;;5014075;28;20062;-55
2021/06/24 03:54:44;;;;;;;2.15;1.05;;;26.00;61.30;;;;;;5020617;28;20112;-53
2021/06/24 03:57:10;;;;;;;1.80;1.00;;;26.00;61.30;;;;;;5018761;28;20036;-52
2021/06/24 03:59:36;;;;;;;3.15;1.20;;;26.00;61.40;;;;;;5016414;28;20048;-53
2021/06/24 04:02:03;;;;;;;1.58;1.25;;;26.00;61.30;;;;;;5014817;28;20022;-52
2021/06/24 04:04:29;;;;;;;1.00;0.90;;;26.00;61.40;;;;;;5014598;28;20038;-54
2021/06/24 04:06:55;;;;;;;1.88;1.13;;;26.00;61.20;;;;;;5014985;28;20490;-54
2021/06/24 04:09:20;;;;;;;1.52;1.00;;;26.00;60.60;;;;;;5014006;28;20112;-53
2021/06/24 04:11:46;;;;;;;1.13;1.00;;;26.00;60.20;;;;;;5014856;28;20026;-51
2021/06/24 04:14:12;;;;;;;1.02;0.93;;;26.00;60.40;;;;;;5012241;28;20018;-52
2021/06/24 04:16:38;;;;;;;1.02;0.93;;;26.00;60.60;;;;;;5014696;28;20025;-55
2021/06/24 04:19:04;;;;;;;1.25;0.90;;;26.00;60.60;;;;;;5013839;28;20025;-54
2021/06/24 04:21:29;;;;;;;5.80;1.02;;;26.00;60.60;;;;;;5018284;28;20475;-54
2021/06/24 04:23:56;;;;;;;1.50;0.95;;;26.00;61.20;;;;;;5017919;28;20526;-53
2021/06/24 04:26:22;;;;;;;1.48;1.10;;;26.00;60.60;;;;;;5013558;28;20026;-55
2021/06/24 04:28:49;;;;;;;1.77;1.08;;;26.00;61.10;;;;;;5016897;28;20118;-54
2021/06/24 04:31:14;;;;;;;1.02;0.88;;;26.00;61.10;;;;;;5013850;28;20049;-55
2021/06/24 04:33:40;;;;;;;1.38;1.20;;;26.00;61.20;;;;;;5013977;28;20022;-53
2021/06/24 04:36:06;;;;;;;0.93;0.80;;;26.00;61.00;;;;;;5014189;28;20098;-52
2021/06/24 04:38:31;;;;;;;1.10;1.00;;;26.00;61.30;;;;;;5017441;28;20026;-54
2021/06/24 04:40:57;;;;;;;1.30;1.10;;;26.00;61.30;;;;;;5010201;28;20399;-55
2021/06/24 04:43:23;;;;;;;2.65;1.10;;;26.00;61.10;;;;;;5007493;28;20062;-55
2021/06/24 04:45:48;;;;;;;1.45;1.25;;;26.00;61.80;;;;;;5008846;28;20494;-54
2021/06/24 04:48:14;;;;;;;4.57;1.10;;;26.00;61.20;;;;;;5008203;28;20105;-55
2021/06/24 04:50:40;;;;;;;1.67;1.08;;;26.00;61.10;;;;;;5003402;28;20038;-53
2021/06/24 04:53:05;;;;;;;0.88;0.70;;;26.00;61.10;;;;;;5006299;28;20380;-53
2021/06/24 04:55:38;;;;;;;1.30;0.88;;;26.00;61.10;;;;;;5010301;28;20088;-55
2021/06/24 04:58:08;;;;;;;1.42;1.00;;;26.00;61.30;;;;;;5011857;28;20045;-55
2021/06/24 05:00:34;;;;;;;3.53;1.20;;;26.00;61.20;;;;;;5013886;28;20038;-55
2021/06/24 05:03:04;;;;;;;1.33;1.00;;;26.00;61.10;;;;;;5006101;28;20066;-52
2021/06/24 05:05:30;;;;;;;1.33;1.02;;;26.00;61.00;;;;;;5005472;28;20033;-52
2021/06/24 05:07:55;;;;;;;1.58;0.70;;;26.00;61.00;;;;;;5010309;28;20033;-55
2021/06/24 05:10:21;;;;;;;4.50;0.88;;;26.00;60.70;;;;;;5000265;28;20450;-53
2021/06/24 05:12:48;;;;;;;1.15;0.98;;;26.00;60.70;;;;;;5000402;28;20027;-55
2021/06/24 05:15:14;;;;;;;1.10;0.93;;;26.00;60.80;;;;;;5012614;28;20084;-52
2021/06/24 05:17:40;;;;;;;3.05;1.00;;;26.00;60.90;;;;;;5022644;28;20116;-54
2021/06/24 05:20:08;;;;;;;1.80;1.20;;;26.00;60.80;;;;;;5012490;28;20096;-53
2021/06/24 05:22:35;;;;;;;1.10;1.00;;;26.00;60.60;;;;;;5011668;28;20033;-52
2021/06/24 05:25:01;;;;;;;0.93;0.90;;;26.00;60.90;;;;;;5008910;28;20463;-53
2021/06/24 05:27:26;;;;;;;1.27;1.10;;;26.00;60.90;;;;;;5012187;28;20025;-55
2021/06/24 05:29:52;;;;;;;1.67;0.95;;;26.00;60.70;;;;;;5008090;28;20095;-55
2021/06/24 05:32:18;;;;;;;1.50;0.95;;;26.00;60.20;;;;;;5004321;28;20065;-52
2021/06/24 05:34:43;;;;;;;4.28;1.10;;;26.00;60.20;;;;;;5003437;28;20034;-54
2021/06/24 05:37:09;;;;;;;1.38;1.25;;;26.00;60.00;;;;;;5008812;28;20038;-54
2021/06/24 05:39:35;;;;;;;1.42;1.00;;;26.00;60.20;;;;;;5012990;28;20065;-55
2021/06/24 05:42:01;;;;;;;1.17;1.02;;;26.00;60.50;;;;;;5005116;28;20112;-54
2021/06/24 05:44:28;;;;;;;1.25;0.90;;;26.00;60.70;;;;;;5012167;28;20464;-55
2021/06/24 05:46:56;;;;;;;2.13;0.90;;;26.10;60.70;;;;;;5014266;28;20057;-51
2021/06/24 05:49:23;;;;;;;4.18;1.27;;;26.10;60.40;;;;;;5013515;28;20025;-55
2021/06/24 05:51:49;;;;;;;3.53;1.30;;;26.00;60.40;;;;;;5012513;28;20125;-55
2021/06/24 05:54:15;;;;;;;2.03;1.27;;;26.00;59.40;;;;;;5011754;28;20038;-55
2021/06/24 05:56:41;;;;;;;4.47;1.75;;;26.00;59.20;;;;;;5013467;28;20352;-55
2021/06/24 05:59:07;;;;;;;3.40;1.60;;;26.00;58.40;;;;;;5015415;28;20108;-54
2021/06/24 06:01:33;;;;;;;7.30;1.98;;;26.00;58.40;;;;;;5004629;28;20391;-55
2021/06/24 06:03:59;;;;;;;8.93;2.08;;;26.00;57.60;;;;;;5012204;28;20173;-57
2021/06/24 06:06:24;;;;;;;5.38;1.90;;;26.00;57.70;;;;;;5011956;28;20039;-52
2021/06/24 06:08:50;;;;;;;6.40;1.67;;;25.90;58.60;;;;;;5012520;28;20394;-53
2021/06/24 06:11:18;;;;;;;3.65;1.63;;;25.90;58.40;;;;;;5010548;28;20121;-53
2021/06/24 06:13:43;;;;;;;4.25;1.50;;;25.90;58.60;;;;;;5008351;28;20030;-55
2021/06/24 06:16:09;;;;;;;3.50;1.50;;;26.00;58.80;;;;;;5007746;28;20455;-54
2021/06/24 06:18:35;;;;;;;5.55;1.90;;;26.00;58.00;;;;;;5012497;28;20034;-57
2021/06/24 06:21:00;;;;;;;3.38;2.25;;;25.50;59.60;;;;;;5012780;28;20048;-57
2021/06/24 06:23:28;;;;;;;4.03;2.17;;;24.80;60.90;;;;;;5011671;28;20087;-57
2021/06/24 06:25:53;;;;;;;3.58;1.90;;;24.30;61.80;;;;;;5010724;28;20034;-57
2021/06/24 06:28:20;;;;;;;4.18;2.28;;;24.10;62.90;;;;;;5011677;28;20107;-58
2021/06/24 06:30:51;;;;;;;5.45;2.40;;;24.10;63.40;;;;;;5012032;28;20033;-57
2021/06/24 06:33:18;;;;;;;2.35;1.80;;;24.00;63.20;;;;;;5008853;28;20432;-58
2021/06/24 06:35:44;;;;;;;2.70;1.90;;;24.00;63.30;;;;;;5011526;28;20678;-57
2021/06/24 06:38:11;;;;;;;3.65;2.25;;;24.00;63.90;;;;;;5009135;28;20030;-56
2021/06/24 06:40:38;;;;;;;6.05;1.80;;;24.00;63.80;;;;;;5011464;28;20407;-57
2021/06/24 06:43:04;;;;;;;2.63;1.80;;;24.00;63.90;;;;;;5011198;28;20028;-57
2021/06/24 06:45:31;;;;;;;3.33;1.80;;;24.00;63.80;;;;;;5011534;28;20033;-57
2021/06/24 06:47:57;;;;;;;2.50;2.05;;;24.10;63.80;;;;;;5011889;28;20069;-57
2021/06/24 06:50:23;;;;;;;2.10;1.88;;;24.00;63.90;;;;;;5009842;28;20483;-57
2021/06/24 06:52:48;;;;;;;2.78;1.85;;;24.00;64.00;;;;;;5002303;28;20058;-57
2021/06/24 06:55:14;;;;;;;5.70;2.00;;;23.80;63.80;;;;;;5010248;28;20041;-57
2021/06/24 06:57:40;;;;;;;4.43;2.05;;;23.70;63.90;;;;;;5012017;28;20096;-57
2021/06/24 07:00:09;;;;;;;2.13;1.90;;;23.70;64.20;;;;;;5011202;28;20037;-56
2021/06/24 07:02:35;;;;;;;2.45;1.90;;;23.70;63.80;;;;;;5010501;28;20040;-57
2021/06/24 07:05:01;;;;;;;1.73;1.60;;;23.80;64.00;;;;;;5011520;28;20026;-57
2021/06/24 07:07:26;;;;;;;3.25;2.20;;;23.80;63.80;;;;;;5012404;28;20466;-57
2021/06/24 07:09:53;;;;;;;2.00;1.73;;;23.80;63.70;;;;;;5011237;28;20060;-57
2021/06/24 07:12:19;;;;;;;1.60;1.40;;;23.80;63.90;;;;;;5010247;28;20061;-56
2021/06/24 07:14:45;;;;;;;2.65;1.88;;;23.80;63.80;;;;;;5009874;28;20030;-56
2021/06/24 07:17:10;;;;;;;3.15;2.30;;;23.90;63.20;;;;;;5010422;28;20510;-57
2021/06/24 07:19:36;;;;;;;2.22;1.60;;;23.90;63.50;;;;;;5010884;28;20124;-56
2021/06/24 07:22:02;;;;;;;3.58;1.70;;;23.80;63.70;;;;;;5011112;28;20070;-56
2021/06/24 07:24:27;;;;;;;2.67;1.40;;;23.80;63.60;;;;;;5010293;28;20022;-57
2021/06/24 07:26:53;;;;;;;3.17;1.70;;;23.80;62.80;;;;;;5011237;28;20153;-57
2021/06/24 07:29:19;;;;;;;1.73;1.60;;;23.80;63.70;;;;;;5009886;28;20032;-57
2021/06/24 07:31:45;;;;;;;2.53;1.60;;;23.90;62.80;;;;;;5010196;28;20057;-57
2021/06/24 07:34:11;;;;;;;2.03;1.50;;;23.90;63.20;;;;;;5010005;28;20026;-56
2021/06/24 07:36:37;;;;;;;2.75;1.30;;;23.90;62.90;;;;;;5011483;28;20482;-57
2021/06/24 07:39:04;;;;;;;4.13;1.60;;;23.90;63.30;;;;;;5012600;28;20034;-58
2021/06/24 07:41:29;;;;;;;2.97;1.63;;;23.90;63.60;;;;;;5009562;28;20042;-57
2021/06/24 07:43:55;;;;;;;3.38;1.23;;;23.90;63.30;;;;;;5012951;28;20022;-57
2021/06/24 07:46:21;;;;;;;1.63;1.52;;;23.90;63.30;;;;;;5010342;28;20391;-57
2021/06/24 07:48:48;;;;;;;1.98;1.70;;;23.90;63.80;;;;;;5010499;28;20488;-57
2021/06/24 07:51:14;;;;;;;2.38;1.73;;;23.90;63.80;;;;;;5010293;28;20586;-57
2021/06/24 07:53:42;;;;;;;3.10;2.00;;;23.90;63.80;;;;;;5010427;28;20197;-56
2021/06/24 07:56:12;;;;;;;2.22;2.00;;;23.90;64.40;;;;;;5010941;28;20734;-56
2021/06/24 07:58:39;;;;;;;4.05;2.22;;;23.80;64.20;;;;;;5011120;28;20475;-57
2021/06/24 08:01:05;;;;;;;2.20;2.00;;;23.90;64.20;;;;;;5010620;28;20041;-57
2021/06/24 08:03:31;;;;;;;2.70;2.10;;;23.80;63.80;;;;;;5011634;28;20037;-56
2021/06/24 08:05:57;;;;;;;5.50;1.88;;;23.90;63.60;;;;;;5013677;28;20452;-56
2021/06/24 08:08:23;;;;;;;2.70;1.45;;;23.90;63.40;;;;;;5015390;28;20076;-57
2021/06/24 08:10:49;;;;;;;1.48;1.33;;;23.90;63.40;;;;;;5013684;28;20530;-56
2021/06/24 08:13:14;;;;;;;2.63;1.48;;;23.90;61.70;;;;;;5016839;28;20021;-57
2021/06/24 08:15:41;;;;;;;1.60;1.40;;;23.90;62.10;;;;;;5014584;28;20384;-57
2021/06/24 08:18:06;;;;;;;2.38;2.00;;;24.00;62.90;;;;;;5014694;28;20045;-57
2021/06/24 08:20:32;;;;;;;2.60;1.70;;;24.10;62.60;;;;;;5013568;28;20387;-57
2021/06/24 08:22:58;;;;;;;1.60;1.50;;;24.10;62.60;;;;;;5008511;28;20034;-57
2021/06/24 08:25:24;;;;;;;1.85;1.60;;;24.20;62.10;;;;;;5002029;28;20486;-57
2021/06/24 08:27:50;;;;;;;1.63;1.23;;;24.20;61.60;;;;;;5025895;28;20057;-57
2021/06/24 08:30:17;;;;;;;3.70;2.08;;;24.20;61.70;;;;;;5014433;28;20037;-57
2021/06/24 08:32:42;;;;;;;2.72;1.88;;;24.20;62.00;;;;;;5008720;28;20026;-57
2021/06/24 08:35:09;;;;;;;2.70;1.73;;;24.30;61.40;;;;;;5011005;28;20044;-57
2021/06/24 08:37:36;;;;;;;2.53;1.88;;;24.30;61.30;;;;;;5014773;28;20083;-56
2021/06/24 08:40:04;;;;;;;2.25;1.48;;;24.30;62.00;;;;;;5014899;28;20041;-57
2021/06/24 08:42:32;;;;;;;3.88;1.90;;;24.30;62.30;;;;;;5013981;28;20033;-57
2021/06/24 08:45:01;;;;;;;2.63;1.60;;;24.30;61.60;;;;;;5013629;28;20034;-57
2021/06/24 08:47:28;;;;;;;3.55;1.85;;;24.30;61.70;;;;;;5013994;28;20029;-57
2021/06/24 08:49:56;;;;;;;3.03;2.00;;;24.20;62.20;;;;;;5014200;28;20034;-57
2021/06/24 08:52:22;;;;;;;3.15;1.80;;;24.20;62.10;;;;;;5013381;28;20061;-57
2021/06/24 08:54:48;;;;;;;3.65;1.80;;;24.20;61.50;;;;;;5013899;28;20467;-57
2021/06/24 08:57:15;;;;;;;4.05;2.33;;;24.20;61.20;;;;;;5013787;28;20030;-56
2021/06/24 08:59:41;;;;;;;5.40;2.22;;;24.20;61.40;;;;;;5014241;28;20042;-57
2021/06/24 09:02:11;;;;;;;2.53;1.80;;;24.30;61.70;;;;;;5013757;28;20364;-57
2021/06/24 09:04:40;;;;;;;1.90;1.58;;;24.20;60.90;;;;;;5014100;28;20037;-57
2021/06/24 09:07:11;;;;;;;3.58;1.50;;;24.20;60.80;;;;;;5012365;28;20034;-56
2021/06/24 09:09:37;;;;;;;2.92;1.60;;;24.30;61.10;;;;;;5013873;28;20021;-57
2021/06/24 09:12:12;;;;;;;3.20;1.70;;;24.20;60.10;;;;;;5013336;28;20042;-57
2021/06/24 09:14:42;;;;;;;3.30;1.50;;;24.20;60.40;;;;;;5012344;28;20029;-57
2021/06/24 09:17:10;;;;;;;3.08;1.38;;;24.30;60.70;;;;;;5013811;28;20038;-56
2021/06/24 09:19:39;;;;;;;2.95;1.30;;;24.20;60.60;;;;;;5012350;28;20038;-56
2021/06/24 09:22:09;;;;;;;6.35;1.70;;;24.20;61.40;;;;;;5013646;28;20038;-56
2021/06/24 09:24:36;;;;;;;2.65;1.52;;;24.30;61.00;;;;;;5012750;28;20030;-57
2021/06/24 09:27:04;;;;;;;3.28;1.70;;;24.20;61.10;;;;;;5013635;28;20030;-56
2021/06/24 09:29:30;;;;;;;3.38;1.60;;;24.10;61.40;;;;;;5012443;28;20064;-57
2021/06/24 09:31:58;;;;;;;5.30;1.95;;;24.10;61.60;;;;;;5013190;28;20053;-56
2021/06/24 09:34:25;;;;;;;4.90;2.15;;;24.10;62.00;;;;;;5012056;28;20088;-57
2021/06/24 09:36:53;;;;;;;5.85;2.00;;;24.20;62.00;;;;;;5012602;28;20498;-56
2021/06/24 09:39:31;;;;;;;4.20;1.98;;;24.10;62.00;;;;;;5011248;28;20034;-57
2021/06/24 09:41:59;;;;;;;4.63;1.77;;;24.10;62.50;;;;;;5013439;28;20030;-57
2021/06/24 09:44:25;;;;;;;3.15;2.33;;;24.20;62.30;;;;;;5011655;28;20061;-57
2021/06/24 09:46:52;;;;;;;5.90;2.00;;;24.10;61.20;;;;;;5012825;28;20053;-56
2021/06/24 09:49:25;;;;;;;3.15;1.70;;;24.10;62.10;;;;;;5012040;28;20084;-56
2021/06/24 09:51:52;;;;;;;5.50;2.30;;;24.10;62.90;;;;;;5012576;28;20100;-57
2021/06/24 09:54:18;;;;;;;4.68;1.95;;;24.10;62.50;;;;;;5011443;28;20422;-57
2021/06/24 09:56:51;;;;;;;3.03;2.03;;;24.10;62.70;;;;;;5012195;28;20026;-57
2021/06/24 09:59:18;;;;;;;2.97;1.92;;;24.10;62.50;;;;;;5012287;28;20028;-56
2021/06/24 10:01:45;;;;;;;4.22;1.80;;;24.30;62.30;;;;;;5012909;28;20056;-57
2021/06/24 10:04:19;;;;;;;6.40;2.00;;;24.30;62.10;;;;;;5012877;28;20017;-57
2021/06/24 10:06:46;;;;;;;7.68;2.90;;;24.30;62.50;;;;;;5012803;28;20080;-57
2021/06/24 10:09:12;;;;;;;9.23;3.65;;;24.30;61.70;;;;;;5010620;28;20379;-56
2021/06/24 10:11:38;;;;;;;27.67;7.15;;;24.30;62.10;;;;;;5012392;28;20034;-57
2021/06/24 10:14:05;;;;;;;10.15;3.00;;;24.40;62.40;;;;;;5013710;28;20478;-57
2021/06/24 10:16:31;;;;;;;6.88;3.00;;;24.50;61.90;;;;;;5010599;28;20037;-57
2021/06/24 10:18:59;;;;;;;5.32;2.22;;;24.40;62.00;;;;;;5012655;28;20026;-56
2021/06/24 10:21:26;;;;;;;5.78;2.42;;;24.40;62.10;;;;;;5011548;28;20077;-57
2021/06/24 10:23:56;;;;;;;6.32;2.40;;;24.50;62.00;;;;;;5012729;28;20049;-57
2021/06/24 10:26:24;;;;;;;4.50;2.15;;;24.50;61.90;;;;;;5010847;28;20379;-57
2021/06/24 10:29:09;;;;;;;2.58;1.70;;;24.60;61.60;;;;;;5012218;28;20509;-57
2021/06/24 10:31:43;;;;;;;3.58;1.77;;;24.60;59.50;;;;;;5011723;28;20021;-57
2021/06/24 10:34:09;;;;;;;2.72;1.60;;;24.70;59.20;;;;;;5012493;28;20026;-57
2021/06/24 10:36:36;;;;;;;2.70;1.40;;;24.70;59.70;;;;;;5011059;28;20097;-56
2021/06/24 10:39:02;;;;;;;2.05;1.50;;;24.60;59.50;;;;;;5010496;28;20037;-57
2021/06/24 10:42:00;;;;;;;2.75;1.50;;;24.60;59.50;;;;;;5011469;28;20045;-57
2021/06/24 10:44:51;;;;;;;1.42;1.15;;;24.70;59.90;;;;;;5024027;28;20026;-57
2021/06/24 10:47:39;;;;;;;2.13;1.48;;;24.80;59.20;;;;;;5031424;28;20025;-57
2021/06/24 10:50:33;;;;;;;2.22;1.45;;;24.80;58.50;;;;;;5026518;28;20501;-56
2021/06/24 10:53:19;;;;;;;2.78;1.33;;;24.80;58.40;;;;;;5012187;28;20053;-57
2021/06/24 10:55:49;;;;;;;3.70;1.30;;;24.80;58.10;;;;;;5011399;28;20026;-57
2021/06/24 10:58:17;;;;;;;1.45;1.05;;;24.90;58.00;;;;;;5011040;28;20046;-57
2021/06/24 11:00:45;;;;;;;1.38;1.15;;;24.90;57.10;;;;;;5012020;28;20041;-57
2021/06/24 11:03:16;;;;;;;1.98;1.10;;;24.90;56.50;;;;;;5011660;28;20418;-57
2021/06/24 11:05:47;;;;;;;2.27;1.40;;;24.70;56.50;;;;;;5011762;28;20030;-56
2021/06/24 11:08:14;;;;;;;3.08;1.13;;;24.80;56.90;;;;;;5009710;28;20030;-57
2021/06/24 11:10:56;;;;;;;4.25;1.10;;;24.70;56.20;;;;;;5011233;28;20476;-57
2021/06/24 11:16:06;;;;;;;1.25;1.05;;;24.90;55.90;;;;;;5031684;28;20033;-57
2021/06/24 11:18:35;;;;;;;1.52;1.42;;;24.70;55.80;;;;;;5030769;28;20087;-57
2021/06/24 11:21:03;;;;;;;1.25;0.90;;;24.60;55.30;;;;;;5031520;28;20108;-56
2021/06/24 11:23:34;;;;;;;1.30;0.90;;;24.60;55.70;;;;;;5030488;28;20025;-56
2021/06/24 11:26:06;;;;;;;1.25;0.93;;;24.80;56.00;;;;;;5018812;28;20018;-57
2021/06/24 11:35:01;;;;;;;2.60;1.42;;;25.00;56.10;;;;;;5009740;28;20049;-56
2021/06/24 11:37:28;;;;;;;2.15;1.00;;;25.10;57.30;;;;;;5010660;28;20132;-57
2021/06/24 11:40:06;;;;;;;2.85;1.23;;;25.10;56.90;;;;;;5015002;28;20372;-57
2021/06/24 11:42:46;;;;;;;3.63;1.20;;;25.10;57.00;;;;;;5014141;28;20030;-56
2021/06/24 11:45:16;;;;;;;1.48;1.30;;;25.30;56.90;;;;;;5014345;28;20368;-57
2021/06/24 11:47:47;;;;;;;4.00;1.00;;;25.30;56.70;;;;;;5014816;28;20034;-58
2021/06/24 12:03:51;;;;;;;2.25;0.90;;;25.10;53.70;;;;;;4995636;28;20034;-58
2021/06/24 12:06:17;;;;;;;1.45;1.05;;;25.20;54.20;;;;;;4995828;28;20400;-58
2021/06/24 12:08:42;;;;;;;1.00;0.80;;;25.20;54.50;;;;;;5010422;28;20463;-59
2021/06/24 12:11:12;;;;;;;1.20;1.00;;;25.30;54.40;;;;;;5015132;28;20109;-59
2021/06/24 12:13:41;;;;;;;2.47;1.00;;;25.30;54.30;;;;;;5014069;28;20038;-59
2021/06/24 12:16:11;;;;;;;1.13;0.90;;;25.30;54.00;;;;;;5015302;28;20026;-59
2021/06/24 12:18:39;;;;;;;2.88;1.13;;;25.30;54.10;;;;;;5014620;28;20083;-58
2021/06/24 12:21:11;;;;;;;1.63;0.80;;;25.30;54.20;;;;;;5015273;28;20048;-59
2021/06/24 12:23:46;;;;;;;3.60;0.90;;;25.20;54.40;;;;;;5014703;28;20084;-58
2021/06/24 12:26:13;;;;;;;3.20;0.90;;;25.20;53.80;;;;;;5015137;28;20029;-58
2021/06/24 12:28:40;;;;;;;1.75;0.98;;;25.10;53.90;;;;;;5014333;28;20132;-58
2021/06/24 12:31:15;;;;;;;0.75;0.70;;;25.10;53.20;;;;;;5012929;28;20109;-58
2021/06/24 12:33:42;;;;;;;0.80;0.80;;;25.10;53.00;;;;;;5014227;28;20130;-58
2021/06/24 12:36:08;;;;;;;1.25;0.77;;;25.20;52.70;;;;;;5014928;28;20034;-58
2021/06/24 12:38:34;;;;;;;1.83;0.77;;;25.20;52.30;;;;;;5026671;28;20049;-58
2021/06/24 12:41:09;;;;;;;0.70;0.70;;;25.20;51.80;;;;;;5034159;28;20037;-58
2021/06/24 12:43:36;;;;;;;1.85;0.82;;;25.20;51.40;;;;;;5014940;28;20030;-57
2021/06/24 12:46:05;;;;;;;1.88;0.60;;;25.20;51.20;;;;;;5014527;28;20087;-58
2021/06/24 12:48:32;;;;;;;1.17;0.70;;;25.20;50.40;;;;;;5012944;28;20038;-58
2021/06/24 12:51:03;;;;;;;2.63;0.82;;;25.20;50.90;;;;;;5007477;28;20210;-58
2021/06/24 12:53:44;;;;;;;0.50;0.50;;;25.20;51.00;;;;;;4992798;28;20069;-59
2021/06/24 12:56:24;;;;;;;1.63;0.70;;;25.40;50.60;;;;;;4994681;28;20065;-59
2021/06/24 12:58:52;;;;;;;0.50;0.50;;;25.50;51.10;;;;;;4993380;28;20031;-58
2021/06/24 13:01:21;;;;;;;0.57;0.50;;;25.60;50.30;;;;;;4994101;28;20069;-58
2021/06/24 13:03:49;;;;;;;0.90;0.70;;;25.60;49.10;;;;;;4996973;28;20039;-58
2021/06/24 13:06:31;;;;;;;0.50;0.50;;;25.60;48.50;;;;;;5014145;28;20062;-58
2021/06/24 13:09:02;;;;;;;0.77;0.50;;;25.60;48.50;;;;;;5027079;28;20475;-58
2021/06/24 13:11:30;;;;;;;0.50;0.50;;;25.70;47.80;;;;;;5033217;28;20368;-58